Time;durP1;ratioP1;P1;durP2;ratioP2;P2;SDS_P1;SDS_P2;PMS_P1;PMS_P2;Temp;Humidity;BMP_temperature;BMP_pressure;BME280_temperature;BME280_humidity;BME280_pressure;Samples;Min_cycle;Max_cycle;Signal;HPM_P1;HPM_P2
2023/09/18 00:00:45;;;;;;;;;;;;;;;;;;4934233;29;19974;-74
2023/09/18 00:03:10;;;;;;;;;;;;;;;;;;4929995;29;19922;-74
2023/09/18 00:05:35;;;;;;;;;;;;;;;;;;4931839;29;19918;-74
2023/09/18 00:08:02;;;;;;;;;;;;;;;;;;4931306;29;19980;-74
2023/09/18 00:10:28;;;;;;;;;;;;;;;;;;4932114;29;19975;-74
2023/09/18 00:12:53;;;;;;;;;;;;;;;;;;4937735;29;19915;-74
2023/09/18 00:15:19;;;;;;;;;;;;;;;;;;4934821;29;19917;-74
2023/09/18 00:17:44;;;;;;;;;;;;;;;;;;4936731;29;19919;-74
2023/09/18 00:20:09;;;;;;;;;;;;;;;;;;4929311;29;19917;-74
2023/09/18 00:22:34;;;;;;;;;;;;;;;;;;4933370;29;19956;-74
2023/09/18 00:24:59;;;;;;;;;;;;;;;;;;4934520;29;19911;-74
2023/09/18 00:27:24;;;;;;;;;;;;;;;;;;4934508;29;19964;-74
2023/09/18 00:29:50;;;;;;;;;;;;;;;;;;4930865;29;19914;-74
2023/09/18 00:32:15;;;;;;;;;;;;;;;;;;4939895;29;19915;-74
2023/09/18 00:34:40;;;;;;;;;;;;;;;;;;4928155;29;19911;-74
2023/09/18 00:37:05;;;;;;;;;;;;;;;;;;4932964;29;19914;-74
2023/09/18 00:39:31;;;;;;;;;;;;;;;;;;4932658;29;19907;-74
2023/09/18 00:41:56;;;;;;;;;;;;;;;;;;4929088;29;19922;-74
2023/09/18 00:44:22;;;;;;;;;;;;;;;;;;4929256;29;19925;-74
2023/09/18 00:46:47;;;;;;;;;;;;;;;;;;4930419;29;19918;-74
2023/09/18 00:49:12;;;;;;;;;;;;;;;;;;4931903;29;19925;-74
2023/09/18 00:51:37;;;;;;;;;;;;;;;;;;4931618;29;19910;-74
2023/09/18 00:54:02;;;;;;;;;;;;;;;;;;4929491;29;19911;-74
2023/09/18 00:56:27;;;;;;;;;;;;;;;;;;4931150;29;19911;-74
2023/09/18 00:58:52;;;;;;;;;;;;;;;;;;4931721;29;19907;-75
2023/09/18 01:01:22;;;;;;;;;;;;;;;;;;4931945;29;19911;-75
2023/09/18 01:03:47;;;;;;;;;;;;;;;;;;4926327;29;19910;-74
2023/09/18 01:06:12;;;;;;;;;;;;;;;;;;4928701;29;19915;-74
2023/09/18 01:08:37;;;;;;;;;;;;;;;;;;4935661;29;19911;-74
2023/09/18 01:11:03;;;;;;;;;;;;;;;;;;4932011;29;19913;-74
2023/09/18 01:13:28;;;;;;;;;;;;;;;;;;4928135;29;19981;-74
2023/09/18 01:15:53;;;;;;;;;;;;;;;;;;4929626;29;19930;-73
2023/09/18 01:18:18;;;;;;;;;;;;;;;;;;4930351;29;19930;-74
2023/09/18 01:20:43;;;;;;;;;;;;;;;;;;4932073;29;19917;-74
2023/09/18 01:23:08;;;;;;;;;;;;;;;;;;4939795;29;19914;-74
2023/09/18 01:25:34;;;;;;;;;;;;;;;;;;4935116;29;19914;-74
2023/09/18 01:27:59;;;;;;;;;;;;;;;;;;4935863;29;19914;-74
2023/09/18 01:30:24;;;;;;;;;;;;;;;;;;4936323;29;19906;-74
2023/09/18 01:32:49;;;;;;;;;;;;;;;;;;4935303;29;19922;-74
2023/09/18 01:35:14;;;;;;;;;;;;;;;;;;4933297;29;20201;-74
2023/09/18 01:37:40;;;;;;;;;;;;;;;;;;4937348;29;20048;-74
2023/09/18 01:40:06;;;;;;;;;;;;;;;;;;4935573;29;19933;-74
2023/09/18 01:42:31;;;;;;;;;;;;;;;;;;4936372;29;19911;-74
2023/09/18 01:44:56;;;;;;;;;;;;;;;;;;4933757;29;19926;-75
2023/09/18 01:47:23;;;;;;;;;;;;;;;;;;4935043;29;19914;-76
2023/09/18 01:49:48;;;;;;;;;;;;;;;;;;4932200;29;19961;-77
2023/09/18 01:52:13;;;;;;;;;;;;;;;;;;4938064;29;19942;-77
2023/09/18 01:54:38;;;;;;;;;;;;;;;;;;4930884;29;19911;-77
2023/09/18 01:57:03;;;;;;;;;;;;;;;;;;4934342;29;19981;-76
2023/09/18 01:59:29;;;;;;;;;;;;;;;;;;4936876;29;19917;-76
2023/09/18 02:01:54;;;;;;;;;;;;;;;;;;4934443;29;19911;-75
2023/09/18 02:04:19;;;;;;;;;;;;;;;;;;4934322;29;19918;-75
2023/09/18 02:06:44;;;;;;;;;;;;;;;;;;4933411;29;19922;-75
2023/09/18 02:09:09;;;;;;;;;;;;;;;;;;4935212;29;19911;-75
2023/09/18 02:11:34;;;;;;;;;;;;;;;;;;4933392;29;19957;-75
2023/09/18 02:14:00;;;;;;;;;;;;;;;;;;4937285;29;19910;-75
2023/09/18 02:16:26;;;;;;;;;;;;;;;;;;4930800;29;19936;-75
2023/09/18 02:18:51;;;;;;;;;;;;;;;;;;4937909;29;19919;-75
2023/09/18 02:21:16;;;;;;;;;;;;;;;;;;4931408;29;19911;-76
2023/09/18 02:23:41;;;;;;;;;;;;;;;;;;4926843;29;19917;-75
2023/09/18 02:26:06;;;;;;;;;;;;;;;;;;4937375;29;19915;-75
2023/09/18 02:28:31;;;;;;;;;;;;;;;;;;4935757;29;19933;-74
2023/09/18 02:30:57;;;;;;;;;;;;;;;;;;4934034;29;19911;-74
2023/09/18 02:33:22;;;;;;;;;;;;;;;;;;4931878;29;19918;-75
2023/09/18 02:35:47;;;;;;;;;;;;;;;;;;4933761;29;19915;-75
2023/09/18 02:38:12;;;;;;;;;;;;;;;;;;4940063;29;19910;-75
2023/09/18 02:40:37;;;;;;;;;;;;;;;;;;4932266;29;19910;-75
2023/09/18 02:43:03;;;;;;;;;;;;;;;;;;4934476;29;19910;-75
2023/09/18 02:45:28;;;;;;;;;;;;;;;;;;4936167;29;19921;-75
2023/09/18 02:47:53;;;;;;;;;;;;;;;;;;4934380;29;19970;-75
2023/09/18 02:50:18;;;;;;;;;;;;;;;;;;4933258;29;19974;-75
2023/09/18 02:52:43;;;;;;;;;;;;;;;;;;4929867;29;19981;-75
2023/09/18 02:55:10;;;;;;;;;;;;;;;;;;4936703;29;19911;-74
2023/09/18 02:57:35;;;;;;;;;;;;;;;;;;4928335;29;19917;-75
2023/09/18 03:00:00;;;;;;;;;;;;;;;;;;4931622;29;19914;-75
2023/09/18 03:02:25;;;;;;;;;;;;;;;;;;4929353;29;20025;-75
2023/09/18 03:04:50;;;;;;;;;;;;;;;;;;4932288;29;19915;-75
2023/09/18 03:07:16;;;;;;;;;;;;;;;;;;4941813;29;19949;-75
2023/09/18 03:09:41;;;;;;;;;;;;;;;;;;4932777;29;19915;-75
2023/09/18 03:12:06;;;;;;;;;;;;;;;;;;4931639;29;19911;-75
2023/09/18 03:14:31;;;;;;;;;;;;;;;;;;4928607;29;19910;-75
2023/09/18 03:16:56;;;;;;;;;;;;;;;;;;4933460;29;19922;-75
2023/09/18 03:19:22;;;;;;;;;;;;;;;;;;4932522;29;19918;-75
2023/09/18 03:21:47;;;;;;;;;;;;;;;;;;4929792;29;19915;-74
2023/09/18 03:24:12;;;;;;;;;;;;;;;;;;4932183;29;19914;-75
2023/09/18 03:26:37;;;;;;;;;;;;;;;;;;4935577;29;19910;-75
2023/09/18 03:29:02;;;;;;;;;;;;;;;;;;4934543;29;19910;-75
2023/09/18 03:31:29;;;;;;;;;;;;;;;;;;4936918;29;19906;-74
2023/09/18 03:33:54;;;;;;;;;;;;;;;;;;4928628;29;19918;-75
2023/09/18 03:36:19;;;;;;;;;;;;;;;;;;4934137;29;20054;-74
2023/09/18 03:38:44;;;;;;;;;;;;;;;;;;4932531;29;19919;-75
2023/09/18 03:41:09;;;;;;;;;;;;;;;;;;4934724;29;19917;-75
2023/09/18 03:43:34;;;;;;;;;;;;;;;;;;4937266;29;19942;-74
2023/09/18 03:45:59;;;;;;;;;;;;;;;;;;4930298;29;19914;-74
2023/09/18 03:48:24;;;;;;;;;;;;;;;;;;4935882;29;19922;-75
2023/09/18 03:50:49;;;;;;;;;;;;;;;;;;4930628;29;19915;-75
2023/09/18 03:53:15;;;;;;;;;;;;;;;;;;4931541;29;19918;-75
2023/09/18 03:55:40;;;;;;;;;;;;;;;;;;4933023;29;19993;-76
2023/09/18 03:58:05;;;;;;;;;;;;;;;;;;4932767;29;19917;-76
2023/09/18 04:00:30;;;;;;;;;;;;;;;;;;4933715;29;19911;-76
2023/09/18 04:02:55;;;;;;;;;;;;;;;;;;4930163;29;19927;-76
2023/09/18 04:05:20;;;;;;;;;;;;;;;;;;4935943;29;19946;-76
2023/09/18 04:07:46;;;;;;;;;;;;;;;;;;4922027;29;19929;-76
2023/09/18 04:10:15;;;;;;;;;;;;;;;;;;4931891;29;19910;-76
2023/09/18 04:12:40;;;;;;;;;;;;;;;;;;4929218;29;19942;-76
2023/09/18 04:15:05;;;;;;;;;;;;;;;;;;4932115;29;19954;-76
2023/09/18 04:17:30;;;;;;;;;;;;;;;;;;4943008;28;19965;-76
2023/09/18 04:19:56;;;;;;;;;;;;;;;;;;4929660;29;19993;-76
2023/09/18 04:22:21;;;;;;;;;;;;;;;;;;4917923;29;19911;-76
2023/09/18 04:24:46;;;;;;;;;;;;;;;;;;4931098;29;19949;-76
2023/09/18 04:27:11;;;;;;;;;;;;;;;;;;4924008;29;19983;-76
2023/09/18 04:29:36;;;;;;;;;;;;;;;;;;4930376;29;20025;-76
2023/09/18 04:32:03;;;;;;;;;;;;;;;;;;4927091;29;20000;-76
2023/09/18 04:34:29;;;;;;;;;;;;;;;;;;4924562;29;20027;-76
2023/09/18 04:36:54;;;;;;;;;;;;;;;;;;4929833;29;19950;-76
2023/09/18 04:39:19;;;;;;;;;;;;;;;;;;4922872;29;19969;-76
2023/09/18 04:41:44;;;;;;;;;;;;;;;;;;4935446;29;19914;-76
2023/09/18 04:44:12;;;;;;;;;;;;;;;;;;4932579;29;19907;-76
2023/09/18 04:46:37;;;;;;;;;;;;;;;;;;4930775;29;19915;-76
2023/09/18 04:49:03;;;;;;;;;;;;;;;;;;4928736;29;19930;-76
2023/09/18 04:51:28;;;;;;;;;;;;;;;;;;4929986;29;19911;-76
2023/09/18 04:53:54;;;;;;;;;;;;;;;;;;4931075;28;19907;-76
2023/09/18 04:56:20;;;;;;;;;;;;;;;;;;4932754;29;19914;-77
2023/09/18 04:58:45;;;;;;;;;;;;;;;;;;4932715;29;19911;-77
2023/09/18 05:01:10;;;;;;;;;;;;;;;;;;4933074;29;19914;-76
2023/09/18 05:03:36;;;;;;;;;;;;;;;;;;4931752;29;19919;-76
2023/09/18 05:06:01;;;;;;;;;;;;;;;;;;4928814;29;19911;-77
2023/09/18 05:08:26;;;;;;;;;;;;;;;;;;4928152;29;19919;-76
2023/09/18 05:10:51;;;;;;;;;;;;;;;;;;4912439;29;19943;-77
2023/09/18 05:13:16;;;;;;;;;;;;;;;;;;4922227;29;19911;-77
2023/09/18 05:15:41;;;;;;;;;;;;;;;;;;4925371;29;19935;-78
2023/09/18 05:18:06;;;;;;;;;;;;;;;;;;4926998;29;19918;-77
2023/09/18 05:20:31;;;;;;;;;;;;;;;;;;4930264;29;19935;-77
2023/09/18 05:22:56;;;;;;;;;;;;;;;;;;4933348;29;19994;-78
2023/09/18 05:25:22;;;;;;;;;;;;;;;;;;4921789;29;20244;-77
2023/09/18 05:27:47;;;;;;;;;;;;;;;;;;4938127;29;19939;-78
2023/09/18 05:30:13;;;;;;;;;;;;;;;;;;4923201;29;20005;-79
2023/09/18 05:32:38;;;;;;;;;;;;;;;;;;4935435;29;19959;-78
2023/09/18 05:35:06;;;;;;;;;;;;;;;;;;4936578;29;19907;-78
2023/09/18 05:37:31;;;;;;;;;;;;;;;;;;4932410;29;19907;-78
2023/09/18 05:39:56;;;;;;;;;;;;;;;;;;4932979;29;19922;-77
2023/09/18 05:42:21;;;;;;;;;;;;;;;;;;4928749;29;20014;-78
2023/09/18 05:44:46;;;;;;;;;;;;;;;;;;4928774;29;19922;-78
2023/09/18 05:47:12;;;;;;;;;;;;;;;;;;4930349;29;19923;-78
2023/09/18 05:49:37;;;;;;;;;;;;;;;;;;4932131;29;19921;-78
2023/09/18 05:52:03;;;;;;;;;;;;;;;;;;4931503;29;19910;-77
2023/09/18 05:54:28;;;;;;;;;;;;;;;;;;4932112;29;19907;-77
2023/09/18 05:56:53;;;;;;;;;;;;;;;;;;4931368;29;19918;-77
2023/09/18 05:59:20;;;;;;;;;;;;;;;;;;4913531;29;19962;-77
2023/09/18 06:01:45;;;;;;;;;;;;;;;;;;4929346;29;19914;-77
2023/09/18 06:04:10;;;;;;;;;;;;;;;;;;4914861;29;19911;-77
2023/09/18 06:06:35;;;;;;;;;;;;;;;;;;4934455;29;19974;-77
2023/09/18 06:09:00;;;;;;;;;;;;;;;;;;4931052;29;19919;-76
2023/09/18 06:11:26;;;;;;;;;;;;;;;;;;4929732;29;20025;-76
2023/09/18 06:13:51;;;;;;;;;;;;;;;;;;4914894;29;19918;-74
2023/09/18 06:16:16;;;;;;;;;;;;;;;;;;4929773;29;19922;-74
2023/09/18 06:18:41;;;;;;;;;;;;;;;;;;4935537;29;20009;-74
2023/09/18 06:21:06;;;;;;;;;;;;;;;;;;4934282;29;19924;-74
2023/09/18 06:23:32;;;;;;;;;;;;;;;;;;4935102;29;19907;-74
2023/09/18 06:25:58;;;;;;;;;;;;;;;;;;4932220;29;19914;-74
2023/09/18 06:28:24;;;;;;;;;;;;;;;;;;4933061;29;19915;-74
2023/09/18 06:30:49;;;;;;;;;;;;;;;;;;4935191;29;19915;-74
2023/09/18 06:33:14;;;;;;;;;;;;;;;;;;4932164;29;19911;-74
2023/09/18 06:35:39;;;;;;;;;;;;;;;;;;4934112;29;19907;-74
2023/09/18 06:38:06;;;;;;;;;;;;;;;;;;4937609;29;19913;-74
2023/09/18 06:40:31;;;;;;;;;;;;;;;;;;4934324;29;19913;-74
2023/09/18 06:42:57;;;;;;;;;;;;;;;;;;4934803;29;19919;-75
2023/09/18 06:45:22;;;;;;;;;;;;;;;;;;4934406;29;19907;-74
2023/09/18 06:47:47;;;;;;;;;;;;;;;;;;4937758;29;19911;-74
2023/09/18 06:50:12;;;;;;;;;;;;;;;;;;4933167;29;19907;-74
2023/09/18 06:52:37;;;;;;;;;;;;;;;;;;4935462;29;19907;-74
2023/09/18 06:55:02;;;;;;;;;;;;;;;;;;4917591;29;19907;-74
2023/09/18 06:57:28;;;;;;;;;;;;;;;;;;4934333;29;19907;-74
2023/09/18 06:59:53;;;;;;;;;;;;;;;;;;4936628;29;20013;-74
2023/09/18 07:02:18;;;;;;;;;;;;;;;;;;4934953;29;19917;-74
2023/09/18 07:04:46;;;;;;;;;;;;;;;;;;4932743;29;19997;-74
2023/09/18 07:07:12;;;;;;;;;;;;;;;;;;4935135;29;19914;-74
2023/09/18 07:09:37;;;;;;;;;;;;;;;;;;4933134;29;19918;-74
2023/09/18 07:12:03;;;;;;;;;;;;;;;;;;4934748;29;19930;-74
2023/09/18 07:14:28;;;;;;;;;;;;;;;;;;4932756;29;19966;-74
2023/09/18 07:16:53;;;;;;;;;;;;;;;;;;4932910;29;19906;-74
2023/09/18 07:19:18;;;;;;;;;;;;;;;;;;4931966;29;20013;-74
2023/09/18 07:21:43;;;;;;;;;;;;;;;;;;4934130;29;19989;-74
2023/09/18 07:24:10;;;;;;;;;;;;;;;;;;4932921;29;20010;-74
2023/09/18 07:26:35;;;;;;;;;;;;;;;;;;4932547;29;19911;-74
2023/09/18 07:29:01;;;;;;;;;;;;;;;;;;4934706;29;19917;-75
2023/09/18 07:31:26;;;;;;;;;;;;;;;;;;4934372;29;19916;-74
2023/09/18 07:33:52;;;;;;;;;;;;;;;;;;4934503;29;19950;-75
2023/09/18 07:36:17;;;;;;;;;;;;;;;;;;4932523;29;19914;-75
2023/09/18 07:38:43;;;;;;;;;;;;;;;;;;4931745;29;19911;-76
2023/09/18 07:41:08;;;;;;;;;;;;;;;;;;4932210;29;19979;-75
2023/09/18 07:43:33;;;;;;;;;;;;;;;;;;4934087;29;19911;-75
2023/09/18 07:45:59;;;;;;;;;;;;;;;;;;4931454;29;19957;-76
2023/09/18 07:48:24;;;;;;;;;;;;;;;;;;4932211;29;19921;-75
2023/09/18 07:50:49;;;;;;;;;;;;;;;;;;4930276;29;19907;-75
2023/09/18 07:53:15;;;;;;;;;;;;;;;;;;4932802;29;19998;-75
2023/09/18 07:55:40;;;;;;;;;;;;;;;;;;4931853;29;19980;-74
2023/09/18 07:58:05;;;;;;;;;;;;;;;;;;4932433;29;19926;-75
2023/09/18 08:00:36;;;;;;;;;;;;;;;;;;4933005;29;19906;-74
2023/09/18 08:03:02;;;;;;;;;;;;;;;;;;4934252;29;19914;-75
2023/09/18 08:05:31;;;;;;;;;;;;;;;;;;4929182;29;19911;-74
2023/09/18 08:07:56;;;;;;;;;;;;;;;;;;4938174;29;19910;-74
2023/09/18 08:10:21;;;;;;;;;;;;;;;;;;4930764;29;19911;-74
2023/09/18 08:12:48;;;;;;;;;;;;;;;;;;4936070;29;19918;-74
2023/09/18 08:15:13;;;;;;;;;;;;;;;;;;4935167;29;19907;-75
2023/09/18 08:17:40;;;;;;;;;;;;;;;;;;4932647;29;19926;-75
2023/09/18 08:20:12;;;;;;;;;;;;;;;;;;4932161;29;20286;-76
2023/09/18 08:22:37;;;;;;;;;;;;;;;;;;4929202;29;19981;-77
2023/09/18 08:25:03;;;;;;;;;;;;;;;;;;4936177;29;19978;-77
2023/09/18 08:27:28;;;;;;;;;;;;;;;;;;4931935;29;20007;-76
2023/09/18 08:29:54;;;;;;;;;;;;;;;;;;4928001;29;19921;-76
2023/09/18 08:32:19;;;;;;;;;;;;;;;;;;4932720;29;19910;-77
2023/09/18 08:34:44;;;;;;;;;;;;;;;;;;4925197;29;19940;-76
2023/09/18 08:37:09;;;;;;;;;;;;;;;;;;4923132;29;19938;-77
2023/09/18 08:39:36;;;;;;;;;;;;;;;;;;4926383;29;19914;-78
2023/09/18 08:42:01;;;;;;;;;;;;;;;;;;4927324;29;19915;-77
2023/09/18 08:44:26;;;;;;;;;;;;;;;;;;4930932;29;19915;-77
2023/09/18 08:46:52;;;;;;;;;;;;;;;;;;4932078;29;19907;-79
2023/09/18 08:49:17;;;;;;;;;;;;;;;;;;4931129;29;19915;-79
2023/09/18 08:51:42;;;;;;;;;;;;;;;;;;4935441;29;19918;-78
2023/09/18 08:54:07;;;;;;;;;;;;;;;;;;4932023;29;19911;-79
2023/09/18 08:56:32;;;;;;;;;;;;;;;;;;4924819;29;19911;-78
2023/09/18 08:58:59;;;;;;;;;;;;;;;;;;4937065;29;19933;-79
2023/09/18 09:01:24;;;;;;;;;;;;;;;;;;4934518;29;19913;-78
2023/09/18 09:03:50;;;;;;;;;;;;;;;;;;4938642;29;19906;-78
2023/09/18 09:06:15;;;;;;;;;;;;;;;;;;4928401;29;19917;-78
2023/09/18 09:08:40;;;;;;;;;;;;;;;;;;4914701;29;19911;-77
2023/09/18 09:11:05;;;;;;;;;;;;;;;;;;4928253;29;19914;-77
2023/09/18 09:13:30;;;;;;;;;;;;;;;;;;4931875;29;19911;-77
2023/09/18 09:15:55;;;;;;;;;;;;;;;;;;4925815;29;19911;-77
2023/09/18 09:18:20;;;;;;;;;;;;;;;;;;4933903;29;19918;-77
2023/09/18 09:20:46;;;;;;;;;;;;;;;;;;4931556;29;19913;-77
2023/09/18 09:23:11;;;;;;;;;;;;;;;;;;4929786;29;19998;-76
2023/09/18 09:25:36;;;;;;;;;;;;;;;;;;4932915;29;20068;-76
2023/09/18 09:28:01;;;;;;;;;;;;;;;;;;4919029;29;19915;-77
2023/09/18 09:30:26;;;;;;;;;;;;;;;;;;4932161;29;19911;-77
2023/09/18 09:32:52;;;;;;;;;;;;;;;;;;4931224;29;19918;-77
2023/09/18 09:35:17;;;;;;;;;;;;;;;;;;4930713;29;19915;-77
2023/09/18 09:37:42;;;;;;;;;;;;;;;;;;4932402;29;19997;-79
2023/09/18 09:40:12;;;;;;;;;;;;;;;;;;4932267;29;19907;-80
2023/09/18 09:42:37;;;;;;;;;;;;;;;;;;4936403;29;19914;-81
2023/09/18 09:45:03;;;;;;;;;;;;;;;;;;4933516;29;19907;-81
2023/09/18 09:47:30;;;;;;;;;;;;;;;;;;4922209;29;19926;-81
2023/09/18 09:49:55;;;;;;;;;;;;;;;;;;4937548;29;19982;-79
2023/09/18 09:52:21;;;;;;;;;;;;;;;;;;4934968;29;19995;-79
2023/09/18 09:54:46;;;;;;;;;;;;;;;;;;4934388;29;20093;-80
2023/09/18 09:57:11;;;;;;;;;;;;;;;;;;4935997;29;19918;-78
2023/09/18 09:59:37;;;;;;;;;;;;;;;;;;4934655;29;19953;-78
2023/09/18 10:02:02;;;;;;;;;;;;;;;;;;4933370;29;19933;-78
2023/09/18 10:04:27;;;;;;;;;;;;;;;;;;4933258;29;19915;-77
2023/09/18 10:06:53;;;;;;;;;;;;;;;;;;4932635;29;19970;-77
2023/09/18 10:09:18;;;;;;;;;;;;;;;;;;4931834;29;19922;-77
2023/09/18 10:11:44;;;;;;;;;;;;;;;;;;4936085;29;19907;-76
2023/09/18 10:14:09;;;;;;;;;;;;;;;;;;4937020;29;19981;-77
2023/09/18 10:16:35;;;;;;;;;;;;;;;;;;4938242;29;19997;-76
2023/09/18 10:19:00;;;;;;;;;;;;;;;;;;4938782;29;20014;-76
2023/09/18 10:21:31;;;;;;;;;;;;;;;;;;4936638;29;19915;-76
2023/09/18 10:23:56;;;;;;;;;;;;;;;;;;4941039;29;19906;-76
2023/09/18 10:26:23;;;;;;;;;;;;;;;;;;4931668;29;19917;-75
2023/09/18 10:28:52;;;;;;;;;;;;;;;;;;4938829;29;19914;-75
2023/09/18 10:31:17;;;;;;;;;;;;;;;;;;4932800;29;19934;-75
2023/09/18 10:33:43;;;;;;;;;;;;;;;;;;4935031;29;19910;-75
2023/09/18 10:36:08;;;;;;;;;;;;;;;;;;4933637;29;19907;-75
2023/09/18 10:38:33;;;;;;;;;;;;;;;;;;4917101;29;19911;-74
2023/09/18 10:40:59;;;;;;;;;;;;;;;;;;4933266;29;19918;-75
2023/09/18 10:43:24;;;;;;;;;;;;;;;;;;4922750;29;19906;-74
2023/09/18 10:45:51;;;;;;;;;;;;;;;;;;4930985;29;19915;-74
2023/09/18 10:48:16;;;;;;;;;;;;;;;;;;4934382;29;19918;-74
2023/09/18 10:50:42;;;;;;;;;;;;;;;;;;4937913;29;19918;-74
2023/09/18 10:53:07;;;;;;;;;;;;;;;;;;4938044;29;19982;-74
2023/09/18 10:55:33;;;;;;;;;;;;;;;;;;4931516;29;19918;-74
2023/09/18 10:57:58;;;;;;;;;;;;;;;;;;4930355;29;19958;-74
2023/09/18 11:00:25;;;;;;;;;;;;;;;;;;4932567;29;20008;-74
2023/09/18 11:02:50;;;;;;;;;;;;;;;;;;4933727;29;19974;-74
2023/09/18 11:05:15;;;;;;;;;;;;;;;;;;4933828;29;19954;-74
2023/09/18 11:07:40;;;;;;;;;;;;;;;;;;4935095;29;20013;-74
2023/09/18 11:10:05;;;;;;;;;;;;;;;;;;4934000;29;19918;-74
2023/09/18 11:12:30;;;;;;;;;;;;;;;;;;4918311;29;19967;-74
2023/09/18 11:14:56;;;;;;;;;;;;;;;;;;4931985;29;19958;-73
2023/09/18 11:17:21;;;;;;;;;;;;;;;;;;4926897;28;19994;-74
2023/09/18 11:19:46;;;;;;;;;;;;;;;;;;4895972;29;19911;-74
2023/09/18 11:22:13;;;;;;;;;;;;;;;;;;4926740;29;19911;-74
2023/09/18 11:24:38;;;;;;;;;;;;;;;;;;4910056;29;19913;-73
2023/09/18 11:27:03;;;;;;;;;;;;;;;;;;4895242;29;19998;-74
2023/09/18 11:29:31;;;;;;;;;;;;;;;;;;4910956;29;19915;-74
2023/09/18 11:31:57;;;;;;;;;;;;;;;;;;4912318;29;19911;-74
2023/09/18 11:34:22;;;;;;;;;;;;;;;;;;4892120;29;19918;-73
2023/09/18 11:36:47;;;;;;;;;;;;;;;;;;4897084;29;19975;-74
2023/09/18 11:39:12;;;;;;;;;;;;;;;;;;4896190;29;19907;-73
2023/09/18 11:41:38;;;;;;;;;;;;;;;;;;4896071;29;20028;-73
2023/09/18 11:44:04;;;;;;;;;;;;;;;;;;4908621;29;19914;-73
2023/09/18 11:46:30;;;;;;;;;;;;;;;;;;4893758;29;19907;-73
2023/09/18 11:48:57;;;;;;;;;;;;;;;;;;4895913;29;20012;-73
2023/09/18 11:51:23;;;;;;;;;;;;;;;;;;4895524;29;19915;-73
2023/09/18 11:53:48;;;;;;;;;;;;;;;;;;4908220;29;19911;-73
2023/09/18 11:56:17;;;;;;;;;;;;;;;;;;4924852;29;19986;-74
2023/09/18 11:58:42;;;;;;;;;;;;;;;;;;4896040;29;19911;-73
2023/09/18 12:01:07;;;;;;;;;;;;;;;;;;4923528;29;19918;-74
2023/09/18 12:03:32;;;;;;;;;;;;;;;;;;4909719;29;19914;-73
2023/09/18 12:05:57;;;;;;;;;;;;;;;;;;4910620;29;19911;-73
2023/09/18 12:08:23;;;;;;;;;;;;;;;;;;4895753;29;20010;-73
2023/09/18 12:10:48;;;;;;;;;;;;;;;;;;4924770;29;20240;-73
2023/09/18 12:13:14;;;;;;;;;;;;;;;;;;4896911;29;19915;-73
2023/09/18 12:15:40;;;;;;;;;;;;;;;;;;4924268;29;19907;-73
2023/09/18 12:18:05;;;;;;;;;;;;;;;;;;4917700;29;19941;-73
2023/09/18 12:20:32;;;;;;;;;;;;;;;;;;4930800;29;20005;-73
2023/09/18 12:22:57;;;;;;;;;;;;;;;;;;4933520;29;20002;-73
2023/09/18 12:25:23;;;;;;;;;;;;;;;;;;4932906;29;20005;-73
2023/09/18 12:27:48;;;;;;;;;;;;;;;;;;4933945;29;19914;-73
2023/09/18 12:30:20;;;;;;;;;;;;;;;;;;4932897;29;19910;-73
2023/09/18 12:32:45;;;;;;;;;;;;;;;;;;4934857;29;19907;-73
2023/09/18 12:35:10;;;;;;;;;;;;;;;;;;4915534;29;19966;-74
2023/09/18 12:37:36;;;;;;;;;;;;;;;;;;4936063;29;19966;-74
2023/09/18 12:40:01;;;;;;;;;;;;;;;;;;4930937;29;19954;-73
2023/09/18 12:42:26;;;;;;;;;;;;;;;;;;4932110;29;19922;-73
2023/09/18 12:44:51;;;;;;;;;;;;;;;;;;4927521;29;19922;-73
2023/09/18 12:47:16;;;;;;;;;;;;;;;;;;4917987;29;19938;-74
2023/09/18 12:49:42;;;;;;;;;;;;;;;;;;4933560;29;19907;-73
2023/09/18 12:52:07;;;;;;;;;;;;;;;;;;4931666;29;19913;-74
2023/09/18 12:54:32;;;;;;;;;;;;;;;;;;4930349;29;19915;-74
2023/09/18 12:56:57;;;;;;;;;;;;;;;;;;4938310;29;19907;-74
2023/09/18 12:59:22;;;;;;;;;;;;;;;;;;4937589;29;19907;-74
2023/09/18 13:01:49;;;;;;;;;;;;;;;;;;4936384;29;19982;-73
2023/09/18 13:04:14;;;;;;;;;;;;;;;;;;4931756;29;19922;-73
2023/09/18 13:06:39;;;;;;;;;;;;;;;;;;4925963;29;19919;-74
2023/09/18 13:09:06;;;;;;;;;;;;;;;;;;4926754;29;19922;-74
2023/09/18 13:11:32;;;;;;;;;;;;;;;;;;4927144;29;19911;-73
2023/09/18 13:13:58;;;;;;;;;;;;;;;;;;4932757;29;19907;-74
2023/09/18 13:16:23;;;;;;;;;;;;;;;;;;4927684;29;19925;-73
2023/09/18 13:18:49;;;;;;;;;;;;;;;;;;4930946;29;19934;-73
2023/09/18 13:21:14;;;;;;;;;;;;;;;;;;4934550;29;19911;-73
2023/09/18 13:23:40;;;;;;;;;;;;;;;;;;4934419;29;19983;-73
2023/09/18 13:26:05;;;;;;;;;;;;;;;;;;4920418;29;19962;-73
2023/09/18 13:28:34;;;;;;;;;;;;;;;;;;4933043;29;19918;-73
2023/09/18 13:30:59;;;;;;;;;;;;;;;;;;4939297;29;19914;-73
2023/09/18 13:33:25;;;;;;;;;;;;;;;;;;4935271;29;19914;-73
2023/09/18 13:35:50;;;;;;;;;;;;;;;;;;4934150;29;19910;-73
2023/09/18 13:38:16;;;;;;;;;;;;;;;;;;4933331;29;19918;-73
2023/09/18 13:40:41;;;;;;;;;;;;;;;;;;4933447;29;19965;-73
2023/09/18 13:43:06;;;;;;;;;;;;;;;;;;4934978;29;19911;-74
2023/09/18 13:45:31;;;;;;;;;;;;;;;;;;4928304;29;19918;-74
2023/09/18 13:47:56;;;;;;;;;;;;;;;;;;4940497;29;19930;-74
2023/09/18 13:50:21;;;;;;;;;;;;;;;;;;4936893;29;19970;-74
2023/09/18 13:52:47;;;;;;;;;;;;;;;;;;4934890;29;19917;-73
2023/09/18 13:55:12;;;;;;;;;;;;;;;;;;4935456;29;19907;-73
2023/09/18 13:57:37;;;;;;;;;;;;;;;;;;4932909;29;19958;-73
2023/09/18 14:00:04;;;;;;;;;;;;;;;;;;4931002;29;19910;-73
2023/09/18 14:02:30;;;;;;;;;;;;;;;;;;4936215;29;19906;-74
2023/09/18 14:04:55;;;;;;;;;;;;;;;;;;4934671;29;19918;-74
2023/09/18 14:07:20;;;;;;;;;;;;;;;;;;4933434;29;20302;-73
2023/09/18 14:09:48;;;;;;;;;;;;;;;;;;4936558;29;19950;-74
2023/09/18 14:12:14;;;;;;;;;;;;;;;;;;4934392;29;19941;-74
2023/09/18 14:14:40;;;;;;;;;;;;;;;;;;4933758;29;19918;-74
2023/09/18 14:17:05;;;;;;;;;;;;;;;;;;4934281;29;19918;-74
2023/09/18 14:19:30;;;;;;;;;;;;;;;;;;4931402;29;19922;-74
2023/09/18 14:21:55;;;;;;;;;;;;;;;;;;4935554;29;19946;-74
2023/09/18 14:24:24;;;;;;;;;;;;;;;;;;4936284;29;19907;-74
2023/09/18 14:26:49;;;;;;;;;;;;;;;;;;4936779;29;19914;-74
2023/09/18 14:29:14;;;;;;;;;;;;;;;;;;4939121;29;19914;-74
2023/09/18 14:31:39;;;;;;;;;;;;;;;;;;4932618;29;19926;-74
2023/09/18 14:34:08;;;;;;;;;;;;;;;;;;4928223;29;19911;-74
2023/09/18 14:36:33;;;;;;;;;;;;;;;;;;4927785;29;19982;-74
2023/09/18 14:38:59;;;;;;;;;;;;;;;;;;4928062;29;19971;-74
2023/09/18 14:41:25;;;;;;;;;;;;;;;;;;4925478;29;19922;-74
2023/09/18 14:43:50;;;;;;;;;;;;;;;;;;4918136;29;19910;-74
2023/09/18 14:46:15;;;;;;;;;;;;;;;;;;4935836;29;20030;-74
2023/09/18 14:48:40;;;;;;;;;;;;;;;;;;4929806;29;19921;-74
2023/09/18 14:51:06;;;;;;;;;;;;;;;;;;4936838;29;19910;-72
2023/09/18 14:53:32;;;;;;;;;;;;;;;;;;4927429;29;19911;-73
2023/09/18 14:55:58;;;;;;;;;;;;;;;;;;4927737;29;19921;-72
2023/09/18 14:58:23;;;;;;;;;;;;;;;;;;4930982;29;19911;-72
2023/09/18 15:00:48;;;;;;;;;;;;;;;;;;4917662;29;20005;-73
2023/09/18 15:03:13;;;;;;;;;;;;;;;;;;4929716;29;19919;-72
2023/09/18 15:05:39;;;;;;;;;;;;;;;;;;4923552;29;19973;-73
2023/09/18 15:08:04;;;;;;;;;;;;;;;;;;4924617;29;19914;-73
2023/09/18 15:10:29;;;;;;;;;;;;;;;;;;4930093;29;19919;-72
2023/09/18 15:12:54;;;;;;;;;;;;;;;;;;4934207;29;19911;-73
2023/09/18 15:15:20;;;;;;;;;;;;;;;;;;4916755;29;19917;-72
2023/09/18 15:17:46;;;;;;;;;;;;;;;;;;4934825;29;19966;-73
2023/09/18 15:20:12;;;;;;;;;;;;;;;;;;4932207;29;19949;-73
2023/09/18 15:22:37;;;;;;;;;;;;;;;;;;4932654;29;19918;-72
2023/09/18 15:25:02;;;;;;;;;;;;;;;;;;4928255;29;19938;-73
2023/09/18 15:27:27;;;;;;;;;;;;;;;;;;4931082;29;19914;-73
2023/09/18 15:29:52;;;;;;;;;;;;;;;;;;4931820;29;20026;-73
2023/09/18 15:32:20;;;;;;;;;;;;;;;;;;4930664;29;19910;-73
2023/09/18 15:34:45;;;;;;;;;;;;;;;;;;4926838;29;19986;-73
2023/09/18 15:37:10;;;;;;;;;;;;;;;;;;4931017;29;19915;-73
2023/09/18 15:39:35;;;;;;;;;;;;;;;;;;4937051;29;20058;-73
2023/09/18 15:42:00;;;;;;;;;;;;;;;;;;4924555;29;19914;-73
2023/09/18 15:44:25;;;;;;;;;;;;;;;;;;4928155;29;19933;-73
2023/09/18 15:46:50;;;;;;;;;;;;;;;;;;4911524;29;19958;-73
2023/09/18 15:49:15;;;;;;;;;;;;;;;;;;4913487;29;19921;-73
2023/09/18 15:51:41;;;;;;;;;;;;;;;;;;4931760;29;19964;-73
2023/09/18 15:54:06;;;;;;;;;;;;;;;;;;4916613;29;19946;-73
2023/09/18 15:56:33;;;;;;;;;;;;;;;;;;4930785;29;20010;-73
2023/09/18 15:58:58;;;;;;;;;;;;;;;;;;4930286;29;20007;-73
2023/09/18 16:01:23;;;;;;;;;;;;;;;;;;4916612;29;20009;-73
2023/09/18 16:03:49;;;;;;;;;;;;;;;;;;4931199;29;19925;-73
2023/09/18 16:06:16;;;;;;;;;;;;;;;;;;4929608;29;19910;-73
2023/09/18 16:08:41;;;;;;;;;;;;;;;;;;4929739;29;20694;-73
2023/09/18 16:11:06;;;;;;;;;;;;;;;;;;4931511;29;19954;-73
2023/09/18 16:13:32;;;;;;;;;;;;;;;;;;4932812;29;19949;-72
2023/09/18 16:15:58;;;;;;;;;;;;;;;;;;4930096;29;19911;-72
2023/09/18 16:18:23;;;;;;;;;;;;;;;;;;4929430;29;19958;-72
2023/09/18 16:20:49;;;;;;;;;;;;;;;;;;4925739;29;19960;-73
2023/09/18 16:23:14;;;;;;;;;;;;;;;;;;4926423;29;19917;-73
2023/09/18 16:25:39;;;;;;;;;;;;;;;;;;4923344;29;19917;-72
2023/09/18 16:28:06;;;;;;;;;;;;;;;;;;4925235;29;20300;-73
2023/09/18 16:30:31;;;;;;;;;;;;;;;;;;4922640;29;19910;-73
2023/09/18 16:32:56;;;;;;;;;;;;;;;;;;4928954;29;19919;-72